createdAt,value
2022-08-28T00:00:30.871Z,3.88
2022-08-28T00:02:58.545Z,4.20
2022-08-28T00:05:30.319Z,3.38
2022-08-28T00:07:57.625Z,3.75
2022-08-28T00:10:25.829Z,3.22
2022-08-28T00:12:55.700Z,3.00
2022-08-28T00:15:30.791Z,3.40
2022-08-28T00:17:58.771Z,3.60
2022-08-28T00:20:26.754Z,4.72
2022-08-28T00:22:56.352Z,3.55
2022-08-28T00:25:28.317Z,4.68
2022-08-28T00:28:01.158Z,3.75
2022-08-28T00:30:41.767Z,3.60
2022-08-28T00:33:14.367Z,3.00
2022-08-28T00:35:45.308Z,2.75
2022-08-28T00:38:13.674Z,3.75
2022-08-28T00:40:44.525Z,3.88
2022-08-28T00:43:37.159Z,3.50
2022-08-28T00:46:07.568Z,4.35
2022-08-28T00:48:34.394Z,4.15
2022-08-28T00:51:21.962Z,3.65
2022-08-28T00:53:58.073Z,4.55
2022-08-28T00:56:29.621Z,5.13
2022-08-28T00:59:05.250Z,3.13
2022-08-28T01:01:34.798Z,3.03
2022-08-28T01:04:06.029Z,3.95
2022-08-28T01:06:36.717Z,3.00
2022-08-28T01:09:04.898Z,2.58
2022-08-28T01:11:32.339Z,3.90
2022-08-28T01:14:02.995Z,3.90
2022-08-28T01:16:33.190Z,4.68
2022-08-28T01:19:02.330Z,3.13
2022-08-28T01:21:35.238Z,3.38
2022-08-28T01:24:10.235Z,2.65
2022-08-28T01:26:38.395Z,5.03
2022-08-28T01:29:09.146Z,3.47
2022-08-28T01:31:36.581Z,3.95
2022-08-28T01:34:07.850Z,4.03
2022-08-28T01:36:35.038Z,3.90
2022-08-28T01:39:10.140Z,6.07
2022-08-28T01:41:42.046Z,4.10
2022-08-28T01:44:09.346Z,5.75
2022-08-28T01:46:36.416Z,4.95
2022-08-28T01:49:04.795Z,5.35
2022-08-28T01:51:35.048Z,3.95
2022-08-28T01:54:02.438Z,4.68
2022-08-28T01:56:29.847Z,3.42
2022-08-28T01:58:56.647Z,4.10
2022-08-28T02:01:23.488Z,3.53
2022-08-28T02:04:01.876Z,4.30
2022-08-28T02:06:30.937Z,3.80
2022-08-28T02:09:00.471Z,3.53
2022-08-28T02:11:32.185Z,3.47
2022-08-28T02:14:00.680Z,4.20
2022-08-28T02:16:32.460Z,3.75
2022-08-28T02:19:00.698Z,3.83
2022-08-28T02:21:27.870Z,4.28
2022-08-28T02:23:54.794Z,4.15
2022-08-28T02:26:21.861Z,3.80
2022-08-28T02:28:48.637Z,3.33
2022-08-28T02:31:15.531Z,4.45
2022-08-28T02:33:44.636Z,3.55
2022-08-28T02:36:15.845Z,3.83
2022-08-28T02:39:14.245Z,4.25
2022-08-28T02:41:55.323Z,3.60
2022-08-28T02:44:54.255Z,3.42
2022-08-28T02:50:56.464Z,3.53
2022-08-28T02:53:40.662Z,3.75
2022-08-28T02:56:08.441Z,2.80
2022-08-28T02:58:35.628Z,3.35
2022-08-28T03:01:05.162Z,3.22
2022-08-28T03:03:34.223Z,4.05
2022-08-28T03:06:03.347Z,4.13
2022-08-28T03:08:32.214Z,4.43
2022-08-28T03:11:00.138Z,3.83
2022-08-28T03:13:30.632Z,3.30
2022-08-28T03:15:58.424Z,4.18
2022-08-28T03:18:27.586Z,4.45
2022-08-28T03:20:55.866Z,3.40
2022-08-28T03:23:26.404Z,3.63
2022-08-28T03:26:00.546Z,3.90
2022-08-28T03:28:32.779Z,4.38
2022-08-28T03:30:59.781Z,4.93
2022-08-28T03:33:29.473Z,3.67
2022-08-28T03:35:59.392Z,4.60
2022-08-28T03:38:31.559Z,4.57
2022-08-28T03:51:13.375Z,7.75
2022-08-28T04:07:32.043Z,4.85
2022-08-28T04:10:04.494Z,5.30
2022-08-28T04:12:44.785Z,5.85
2022-08-28T04:15:36.179Z,4.43
2022-08-28T04:18:28.628Z,4.70
2022-08-28T04:21:09.952Z,5.53
2022-08-28T04:24:00.768Z,6.20
2022-08-28T04:27:01.167Z,6.03
2022-08-28T04:33:04.913Z,5.60
2022-08-28T04:36:11.164Z,5.10
2022-08-28T04:39:04.608Z,4.80
2022-08-28T04:41:49.627Z,4.95
2022-08-28T04:44:47.490Z,6.32
2022-08-28T04:47:24.905Z,6.57
2022-08-28T04:50:31.315Z,6.20
2022-08-28T04:53:10.821Z,6.82
2022-08-28T04:55:54.629Z,5.97
2022-08-28T04:58:24.291Z,5.60
2022-08-28T05:01:20.659Z,6.30
2022-08-28T05:03:53.970Z,6.15
2022-08-28T05:06:31.627Z,5.38
2022-08-28T05:09:02.120Z,5.43
2022-08-28T05:11:44.712Z,6.00
2022-08-28T05:14:24.074Z,6.45
2022-08-28T05:16:55.584Z,5.40
2022-08-28T05:19:27.122Z,7.32
2022-08-28T05:21:54.034Z,5.70
2022-08-28T05:24:22.137Z,5.55
2022-08-28T05:26:51.240Z,6.05
2022-08-28T05:29:17.986Z,6.95
2022-08-28T05:31:47.896Z,7.63
2022-08-28T05:34:17.249Z,6.40
2022-08-28T05:36:46.213Z,6.95
2022-08-28T05:47:50.106Z,8.60
2022-08-28T05:50:47.401Z,7.35
2022-08-28T05:54:02.032Z,9.98
2022-08-28T05:57:09.837Z,7.93
2022-08-28T06:00:41.452Z,9.13
2022-08-28T06:03:44.509Z,7.97
2022-08-28T06:31:35.035Z,16.92
2022-08-28T06:34:26.135Z,16.00
2022-08-28T06:37:10.950Z,19.17
2022-08-28T06:39:58.447Z,19.00
2022-08-28T07:21:02.946Z,20.25
2022-08-28T07:23:57.441Z,26.63
2022-08-28T07:29:51.233Z,20.92
2022-08-28T07:32:24.164Z,22.10
2022-08-28T07:35:00.261Z,19.88
2022-08-28T07:40:22.026Z,20.27
2022-08-28T07:43:07.913Z,19.67
2022-08-28T07:45:40.078Z,21.75
2022-08-28T07:48:32.677Z,22.00
2022-08-28T07:51:02.411Z,21.38
2022-08-28T07:53:37.869Z,21.85
2022-08-28T08:06:40.367Z,20.70
2022-08-28T08:09:20.295Z,22.75
2022-08-28T08:12:29.393Z,22.30
2022-08-28T08:15:16.800Z,31.90
2022-08-28T08:19:02.056Z,25.23
2022-08-28T08:29:55.805Z,122.63
2022-08-28T08:32:25.439Z,102.30
2022-08-28T08:34:57.134Z,117.60
2022-08-28T08:38:02.668Z,85.25
2022-08-28T08:40:55.585Z,129.00
2022-08-28T08:43:31.130Z,65.78
2022-08-28T08:46:01.279Z,68.30
2022-08-28T08:48:34.527Z,49.92
2022-08-28T08:51:07.214Z,59.08
2022-08-28T08:53:54.334Z,56.53
2022-08-28T08:56:24.568Z,29.23
2022-08-28T08:59:04.504Z,47.30
2022-08-28T09:01:55.847Z,43.42
2022-08-28T09:04:34.455Z,60.33
2022-08-28T09:07:19.339Z,62.80
2022-08-28T09:09:57.649Z,40.10
2022-08-28T09:12:31.023Z,44.67
2022-08-28T09:15:05.650Z,46.22
2022-08-28T09:17:51.145Z,80.28
2022-08-28T09:20:30.240Z,36.85
2022-08-28T09:23:00.261Z,51.45
2022-08-28T09:25:47.629Z,43.45
2022-08-28T09:28:25.481Z,41.00
2022-08-28T09:30:56.698Z,74.40
2022-08-28T09:33:44.787Z,76.35
2022-08-28T09:36:23.559Z,79.57
2022-08-28T09:39:24.543Z,90.65
2022-08-28T09:42:17.506Z,48.55
2022-08-28T09:44:59.802Z,75.30
2022-08-28T09:47:36.910Z,51.95
2022-08-28T09:50:25.147Z,95.50
2022-08-28T09:52:53.853Z,47.95
2022-08-28T09:55:37.116Z,38.92
2022-08-28T09:58:05.394Z,48.70
2022-08-28T10:00:36.834Z,84.18
2022-08-28T10:03:14.913Z,92.93
2022-08-28T10:05:47.655Z,72.15
2022-08-28T10:08:37.470Z,44.90
2022-08-28T10:11:44.578Z,61.15
2022-08-28T10:14:39.742Z,68.97
2022-08-28T10:17:38.965Z,35.45
2022-08-28T10:20:08.949Z,81.28
2022-08-28T10:22:58.894Z,87.25
2022-08-28T10:26:07.238Z,37.50
2022-08-28T10:28:52.318Z,48.92
2022-08-28T10:31:31.510Z,36.47
2022-08-28T10:34:11.175Z,31.25
2022-08-28T10:36:37.938Z,46.03
2022-08-28T10:39:19.826Z,28.10
2022-08-28T10:42:00.048Z,36.80
2022-08-28T10:44:55.441Z,38.22
2022-08-28T10:47:25.725Z,39.57
2022-08-28T10:50:04.509Z,42.92
2022-08-28T10:52:40.755Z,38.13
2022-08-28T10:55:32.267Z,33.63
2022-08-28T10:58:04.912Z,30.92
2022-08-28T11:00:49.494Z,57.92
2022-08-28T11:03:33.924Z,29.73
2022-08-28T11:06:26.724Z,47.63
2022-08-28T11:08:56.871Z,35.65
2022-08-28T11:11:43.014Z,35.03
2022-08-28T11:14:11.042Z,58.03
2022-08-28T11:16:42.166Z,65.85
2022-08-28T11:19:25.859Z,44.42
2022-08-28T11:21:56.336Z,30.30
2022-08-28T11:24:39.689Z,44.63
2022-08-28T11:27:40.644Z,31.80
2022-08-28T11:30:14.944Z,30.98
2022-08-28T11:32:50.903Z,35.33
2022-08-28T11:35:44.256Z,32.50
2022-08-28T11:38:12.578Z,41.28
2022-08-28T11:40:40.619Z,27.63
2022-08-28T11:43:15.900Z,31.88
2022-08-28T11:45:46.782Z,50.05
2022-08-28T11:48:43.188Z,36.60
2022-08-28T11:51:35.658Z,41.65
2022-08-28T11:54:40.174Z,30.88
2022-08-28T11:57:17.991Z,46.03
2022-08-28T11:59:58.051Z,36.40
2022-08-28T12:02:40.059Z,33.45
2022-08-28T12:05:12.091Z,28.90
2022-08-28T12:07:41.823Z,37.55
2022-08-28T12:10:20.849Z,39.25
2022-08-28T12:12:47.575Z,32.40
2022-08-28T12:15:29.776Z,35.15
2022-08-28T12:18:06.480Z,36.45
2022-08-28T12:20:44.366Z,38.65
2022-08-28T12:23:23.370Z,37.13
2022-08-28T12:26:01.822Z,35.65
2022-08-28T12:28:32.034Z,32.80
2022-08-28T12:31:04.694Z,36.50
2022-08-28T12:33:36.285Z,28.42
2022-08-28T12:36:05.601Z,31.40
2022-08-28T12:38:34.095Z,28.40
2022-08-28T12:41:02.500Z,27.63
2022-08-28T12:43:46.346Z,33.53
2022-08-28T12:46:24.880Z,28.65
2022-08-28T12:48:54.587Z,30.73
2022-08-28T12:51:27.626Z,31.70
2022-08-28T12:54:06.762Z,28.98
2022-08-28T12:56:36.973Z,26.75
2022-08-28T12:59:36.009Z,28.50
2022-08-28T13:02:27.643Z,30.13
2022-08-28T13:05:08.941Z,27.88
2022-08-28T13:07:40.488Z,28.48
2022-08-28T13:10:23.285Z,29.38
2022-08-28T13:13:05.391Z,28.73
2022-08-28T13:15:56.897Z,27.27
2022-08-28T13:18:35.878Z,27.67
2022-08-28T13:21:58.386Z,26.52
2022-08-28T13:24:28.528Z,25.88
2022-08-28T13:27:07.257Z,26.05
2022-08-28T13:29:34.899Z,25.38
2022-08-28T13:32:17.377Z,21.55
2022-08-28T13:35:09.310Z,25.05
2022-08-28T13:37:48.909Z,26.08
2022-08-28T13:40:53.351Z,26.67
2022-08-28T13:43:11.682Z,27.67
2022-08-28T13:45:42.955Z,25.98
2022-08-28T13:48:15.562Z,23.88
2022-08-28T13:50:46.590Z,24.80
2022-08-28T13:53:16.005Z,25.05
2022-08-28T13:55:42.856Z,24.00
2022-08-28T13:58:10.593Z,23.63
2022-08-28T14:00:42.370Z,22.02
2022-08-28T14:03:27.811Z,22.85
2022-08-28T14:05:54.513Z,22.42
2022-08-28T14:08:21.922Z,23.67
2022-08-28T14:10:48.854Z,22.35
2022-08-28T14:13:16.079Z,20.63
2022-08-28T14:15:42.985Z,21.60
2022-08-28T14:18:09.777Z,21.92
2022-08-28T14:20:38.297Z,22.73
2022-08-28T14:23:05.364Z,22.10
2022-08-28T14:25:37.088Z,22.20
2022-08-28T14:28:05.907Z,23.50
2022-08-28T14:30:32.742Z,21.52
2022-08-28T14:32:59.600Z,20.90
2022-08-28T14:35:26.704Z,20.23
2022-08-28T14:37:53.448Z,19.38
2022-08-28T14:40:20.563Z,20.65
2022-08-28T14:42:47.630Z,16.48
2022-08-28T14:45:14.585Z,17.80
2022-08-28T14:47:45.405Z,16.75
2022-08-28T14:50:12.279Z,16.23
2022-08-28T14:52:39.234Z,15.90
2022-08-28T14:55:06.382Z,17.48
2022-08-28T14:57:33.254Z,15.57
2022-08-28T15:00:02.577Z,15.82
2022-08-28T15:02:29.584Z,14.93
2022-08-28T15:04:56.282Z,15.98
2022-08-28T15:07:23.012Z,18.02
2022-08-28T15:09:50.090Z,16.75
2022-08-28T15:12:17.006Z,16.40
2022-08-28T15:14:44.313Z,17.65
2022-08-28T15:17:18.736Z,17.27
2022-08-28T15:19:48.278Z,16.85
2022-08-28T15:35:34.165Z,11.10
2022-08-28T15:38:26.632Z,10.80
2022-08-28T15:41:14.037Z,10.57
2022-08-28T15:43:52.710Z,10.00
2022-08-28T15:46:32.447Z,10.63
2022-08-28T15:49:23.759Z,10.73
2022-08-28T15:56:05.359Z,9.90
2022-08-28T16:02:48.468Z,10.10
2022-08-28T16:05:19.955Z,10.40
2022-08-28T16:07:58.241Z,9.75
2022-08-28T16:11:08.091Z,9.98
2022-08-28T16:14:09.863Z,9.98
2022-08-28T16:16:46.438Z,10.18
2022-08-28T16:20:17.283Z,10.43
2022-08-28T16:29:39.569Z,10.43
2022-08-28T16:32:27.398Z,9.60
2022-08-28T16:35:11.439Z,9.45
2022-08-28T16:37:40.095Z,11.40
2022-08-28T16:40:08.942Z,9.73
2022-08-28T16:42:39.255Z,10.80
2022-08-28T16:45:07.131Z,11.45
2022-08-28T16:47:38.276Z,9.70
2022-08-28T16:50:22.113Z,12.27
2022-08-28T16:56:37.999Z,13.73
2022-08-28T16:59:32.225Z,13.27
2022-08-28T17:02:36.581Z,13.38
2022-08-28T17:05:16.569Z,14.65
2022-08-28T17:07:44.531Z,13.60
2022-08-28T17:10:14.250Z,13.40
2022-08-28T17:12:41.717Z,13.30
2022-08-28T17:15:11.311Z,14.85
2022-08-28T17:17:41.851Z,13.45
2022-08-28T17:20:31.719Z,16.58
2022-08-28T17:23:01.146Z,18.80
2022-08-28T17:25:28.489Z,16.40
2022-08-28T17:27:55.848Z,15.90
2022-08-28T17:30:23.446Z,15.25
2022-08-28T17:32:50.655Z,15.75
2022-08-28T17:35:18.097Z,15.52
2022-08-28T17:37:45.664Z,14.75
2022-08-28T17:40:15.536Z,17.05
2022-08-28T17:42:44.454Z,16.17
2022-08-28T17:45:12.347Z,16.83
2022-08-28T17:47:39.277Z,15.93
2022-08-28T17:50:07.187Z,19.75
2022-08-28T17:52:36.599Z,18.55
2022-08-28T17:55:04.411Z,18.33
2022-08-28T17:57:31.973Z,19.15
2022-08-28T18:00:00.099Z,17.60
2022-08-28T18:02:29.211Z,21.85
2022-08-28T18:04:56.168Z,21.17
2022-08-28T18:07:23.652Z,20.55
2022-08-28T18:09:50.576Z,20.90
2022-08-28T18:12:17.833Z,18.67
2022-08-28T18:14:47.034Z,20.55
2022-08-28T18:17:16.400Z,20.95
2022-08-28T18:19:43.485Z,20.15
2022-08-28T18:22:11.847Z,20.20
2022-08-28T18:24:39.939Z,22.92
2022-08-28T18:27:08.096Z,23.45
2022-08-28T18:29:36.642Z,24.00
2022-08-28T18:32:07.940Z,23.42
2022-08-28T18:34:35.004Z,23.58
2022-08-28T18:37:04.987Z,24.38
2022-08-28T18:39:32.353Z,25.77
2022-08-28T18:41:59.409Z,22.88
2022-08-28T18:44:26.583Z,23.42
2022-08-28T18:46:53.639Z,25.55
2022-08-28T18:49:20.450Z,25.02
2022-08-28T18:51:47.167Z,24.92
2022-08-28T18:54:18.010Z,22.65
2022-08-28T18:56:46.063Z,19.90
2022-08-28T18:59:15.764Z,24.13
2022-08-28T19:01:42.565Z,24.02
2022-08-28T19:04:11.641Z,24.77
2022-08-28T19:06:40.281Z,24.23
2022-08-28T19:09:07.092Z,24.27
2022-08-28T19:11:36.852Z,25.35
2022-08-28T19:14:04.226Z,22.63
2022-08-28T19:16:31.930Z,24.27
2022-08-28T19:18:58.748Z,28.13
2022-08-28T19:21:26.257Z,26.45
2022-08-28T19:23:55.471Z,28.60
2022-08-28T19:26:24.585Z,27.98
2022-08-28T19:28:51.817Z,26.00
2022-08-28T19:31:18.765Z,25.65
2022-08-28T19:33:46.433Z,27.35
2022-08-28T19:36:13.787Z,26.30
2022-08-28T19:38:41.235Z,28.42
2022-08-28T19:41:10.429Z,26.83
2022-08-28T19:43:44.580Z,28.15
2022-08-28T19:46:18.290Z,28.67
2022-08-28T19:48:48.532Z,30.00
2022-08-28T19:51:18.213Z,28.60
2022-08-28T19:53:57.228Z,30.15
2022-08-28T19:56:26.915Z,30.30
2022-08-28T19:58:57.948Z,30.13
2022-08-28T20:01:26.150Z,26.63
2022-08-28T20:03:53.154Z,30.08
2022-08-28T20:06:19.886Z,26.92
2022-08-28T20:08:46.630Z,28.23
2022-08-28T20:11:24.788Z,31.38
2022-08-28T20:13:56.686Z,30.58
2022-08-28T20:16:24.248Z,30.42
2022-08-28T20:18:50.990Z,27.85
2022-08-28T20:21:28.888Z,28.55
2022-08-28T20:24:09.262Z,28.05
2022-08-28T20:26:37.042Z,28.83
2022-08-28T20:29:05.899Z,27.95
2022-08-28T20:31:34.729Z,26.15
2022-08-28T20:34:01.492Z,27.50
2022-08-28T20:36:33.582Z,25.63
2022-08-28T20:39:00.766Z,27.85
2022-08-28T20:41:28.388Z,26.10
2022-08-28T20:43:56.319Z,23.60
2022-08-28T20:46:25.740Z,24.80
2022-08-28T20:48:52.495Z,28.08
2022-08-28T20:51:39.318Z,28.58
2022-08-28T20:56:32.793Z,28.27
2022-08-28T20:59:02.080Z,28.50
2022-08-28T21:01:29.004Z,28.70
2022-08-28T21:03:55.805Z,30.17
2022-08-28T21:06:22.617Z,26.08
2022-08-28T21:08:50.237Z,25.58
2022-08-28T21:11:17.472Z,25.67
2022-08-28T21:13:44.313Z,26.85
2022-08-28T21:16:11.035Z,26.92
2022-08-28T21:18:45.504Z,25.98
2022-08-28T21:21:20.541Z,26.95
2022-08-28T21:23:49.583Z,26.85
2022-08-28T21:26:19.044Z,27.27
2022-08-28T21:28:45.816Z,24.15
2022-08-28T21:31:14.368Z,25.63
2022-08-28T21:33:42.103Z,27.85
2022-08-28T21:36:13.659Z,24.38
2022-08-28T21:38:40.559Z,25.67
2022-08-28T21:41:12.276Z,24.90
2022-08-28T21:43:43.980Z,27.35
2022-08-28T21:46:13.020Z,22.05
2022-08-28T21:48:44.606Z,22.45
2022-08-28T21:51:13.853Z,22.98
2022-08-28T21:53:41.712Z,23.23
2022-08-28T21:56:08.745Z,24.13
2022-08-28T21:58:38.105Z,24.25
2022-08-28T22:01:05.445Z,24.77
2022-08-28T22:03:34.622Z,24.23
2022-08-28T22:06:03.345Z,22.00
2022-08-28T22:08:32.465Z,23.90
2022-08-28T22:10:59.195Z,23.05
2022-08-28T22:13:25.934Z,25.73
2022-08-28T22:15:53.665Z,23.75
2022-08-28T22:18:20.640Z,23.40
2022-08-28T22:21:09.390Z,23.48
2022-08-28T22:23:37.266Z,20.40
2022-08-28T22:26:13.414Z,20.80
2022-08-28T22:28:43.417Z,22.83
2022-08-28T22:31:10.284Z,22.55
2022-08-28T22:33:37.096Z,23.58
2022-08-28T22:36:04.463Z,23.08
2022-08-28T22:38:31.421Z,23.90
2022-08-28T22:40:58.138Z,22.02
2022-08-28T22:43:25.165Z,21.30
2022-08-28T22:45:51.932Z,20.00
2022-08-28T22:48:19.795Z,19.58
2022-08-28T22:50:48.146Z,22.08
2022-08-28T22:53:17.673Z,20.45
2022-08-28T22:55:44.819Z,23.42
2022-08-28T22:58:14.221Z,20.85
2022-08-28T23:00:42.180Z,21.35
2022-08-28T23:03:08.992Z,19.98
2022-08-28T23:05:36.034Z,21.33
2022-08-28T23:08:02.936Z,18.27
2022-08-28T23:10:57.593Z,20.35
2022-08-28T23:15:43.928Z,20.77
2022-08-28T23:18:11.185Z,19.50
2022-08-28T23:20:39.343Z,19.02
2022-08-28T23:23:06.670Z,18.88
2022-08-28T23:25:33.815Z,17.90
2022-08-28T23:28:05.866Z,17.95
2022-08-28T23:30:38.761Z,16.58
2022-08-28T23:33:08.448Z,17.60
2022-08-28T23:35:36.540Z,17.52
2022-08-28T23:38:03.930Z,17.52
2022-08-28T23:40:33.994Z,17.42
2022-08-28T23:43:02.763Z,18.25
2022-08-28T23:45:29.647Z,17.85
2022-08-28T23:47:56.612Z,20.08
2022-08-28T23:50:23.659Z,20.88
2022-08-28T23:52:51.893Z,19.00
2022-08-28T23:55:19.594Z,19.35
2022-08-28T23:57:46.329Z,19.30
